sensor_id;sensor_type;location;lat;lon;timestamp;P1;durP1;ratioP1;P2;durP2;ratioP2
52858;SDS011;38721;53.098;6.596;2023-01-31T00:00:55;23.45;;;4.15;;
52858;SDS011;38721;53.098;6.596;2023-01-31T00:03:21;31.10;;;4.22;;
52858;SDS011;38721;53.098;6.596;2023-01-31T00:05:47;27.95;;;4.05;;
52858;SDS011;38721;53.098;6.596;2023-01-31T00:08:13;20.95;;;3.92;;
52858;SDS011;38721;53.098;6.596;2023-01-31T00:10:39;27.88;;;4.35;;
52858;SDS011;38721;53.098;6.596;2023-01-31T00:13:05;22.80;;;4.13;;
52858;SDS011;38721;53.098;6.596;2023-01-31T00:15:33;22.38;;;3.85;;
52858;SDS011;38721;53.098;6.596;2023-01-31T00:17:58;17.92;;;3.80;;
52858;SDS011;38721;53.098;6.596;2023-01-31T00:20:24;22.38;;;4.20;;
52858;SDS011;38721;53.098;6.596;2023-01-31T00:22:50;21.50;;;3.67;;
52858;SDS011;38721;53.098;6.596;2023-01-31T00:25:15;21.80;;;4.07;;
52858;SDS011;38721;53.098;6.596;2023-01-31T00:27:41;21.42;;;4.32;;
52858;SDS011;38721;53.098;6.596;2023-01-31T00:30:07;19.75;;;3.88;;
52858;SDS011;38721;53.098;6.596;2023-01-31T00:32:34;21.58;;;3.35;;
52858;SDS011;38721;53.098;6.596;2023-01-31T00:35:00;20.02;;;3.60;;
52858;SDS011;38721;53.098;6.596;2023-01-31T00:37:25;21.20;;;3.33;;
52858;SDS011;38721;53.098;6.596;2023-01-31T00:39:51;19.08;;;3.42;;
52858;SDS011;38721;53.098;6.596;2023-01-31T00:42:17;16.02;;;3.50;;
52858;SDS011;38721;53.098;6.596;2023-01-31T00:44:42;25.65;;;4.18;;
52858;SDS011;38721;53.098;6.596;2023-01-31T00:47:08;21.58;;;3.67;;
52858;SDS011;38721;53.098;6.596;2023-01-31T00:49:34;24.35;;;3.72;;
52858;SDS011;38721;53.098;6.596;2023-01-31T00:51:59;15.35;;;3.20;;
52858;SDS011;38721;53.098;6.596;2023-01-31T00:54:25;22.20;;;3.60;;
52858;SDS011;38721;53.098;6.596;2023-01-31T00:56:51;18.00;;;3.10;;
52858;SDS011;38721;53.098;6.596;2023-01-31T00:59:20;14.20;;;2.92;;
52858;SDS011;38721;53.098;6.596;2023-01-31T01:01:45;18.48;;;3.75;;
52858;SDS011;38721;53.098;6.596;2023-01-31T01:04:11;21.23;;;3.90;;
52858;SDS011;38721;53.098;6.596;2023-01-31T01:06:38;19.88;;;4.13;;
52858;SDS011;38721;53.098;6.596;2023-01-31T01:09:05;18.25;;;3.92;;
52858;SDS011;38721;53.098;6.596;2023-01-31T01:11:32;16.27;;;4.43;;
52858;SDS011;38721;53.098;6.596;2023-01-31T01:13:59;16.67;;;3.20;;
52858;SDS011;38721;53.098;6.596;2023-01-31T01:16:27;20.52;;;2.97;;
52858;SDS011;38721;53.098;6.596;2023-01-31T01:19:02;23.20;;;3.85;;
52858;SDS011;38721;53.098;6.596;2023-01-31T01:21:32;18.13;;;3.55;;
52858;SDS011;38721;53.098;6.596;2023-01-31T01:24:03;22.25;;;3.08;;
52858;SDS011;38721;53.098;6.596;2023-01-31T01:26:31;24.27;;;3.47;;
52858;SDS011;38721;53.098;6.596;2023-01-31T01:28:58;25.20;;;4.00;;
52858;SDS011;38721;53.098;6.596;2023-01-31T01:31:29;21.60;;;4.18;;
52858;SDS011;38721;53.098;6.596;2023-01-31T01:33:59;18.45;;;3.80;;
52858;SDS011;38721;53.098;6.596;2023-01-31T01:36:27;16.95;;;2.90;;
52858;SDS011;38721;53.098;6.596;2023-01-31T01:38:53;17.65;;;3.08;;
52858;SDS011;38721;53.098;6.596;2023-01-31T01:41:20;17.35;;;2.97;;
52858;SDS011;38721;53.098;6.596;2023-01-31T01:43:47;19.25;;;3.10;;
52858;SDS011;38721;53.098;6.596;2023-01-31T01:48:47;18.38;;;3.13;;
52858;SDS011;38721;53.098;6.596;2023-01-31T01:51:15;17.17;;;3.30;;
52858;SDS011;38721;53.098;6.596;2023-01-31T01:53:43;17.23;;;2.83;;
52858;SDS011;38721;53.098;6.596;2023-01-31T01:56:15;19.25;;;3.63;;
52858;SDS011;38721;53.098;6.596;2023-01-31T01:58:46;13.68;;;3.10;;
52858;SDS011;38721;53.098;6.596;2023-01-31T02:01:18;25.38;;;4.28;;
52858;SDS011;38721;53.098;6.596;2023-01-31T02:03:44;22.30;;;3.53;;
52858;SDS011;38721;53.098;6.596;2023-01-31T02:06:15;23.35;;;3.15;;
52858;SDS011;38721;53.098;6.596;2023-01-31T02:08:41;25.92;;;3.13;;
52858;SDS011;38721;53.098;6.596;2023-01-31T02:11:13;15.35;;;2.75;;
52858;SDS011;38721;53.098;6.596;2023-01-31T02:13:49;23.55;;;3.45;;
52858;SDS011;38721;53.098;6.596;2023-01-31T02:16:18;18.13;;;3.10;;
52858;SDS011;38721;53.098;6.596;2023-01-31T02:18:44;14.75;;;3.03;;
52858;SDS011;38721;53.098;6.596;2023-01-31T02:21:30;12.77;;;3.20;;
52858;SDS011;38721;53.098;6.596;2023-01-31T02:24:26;15.80;;;3.15;;
52858;SDS011;38721;53.098;6.596;2023-01-31T02:51:14;16.58;;;3.25;;
52858;SDS011;38721;53.098;6.596;2023-01-31T02:53:59;14.85;;;3.03;;
52858;SDS011;38721;53.098;6.596;2023-01-31T02:56:40;9.73;;;2.60;;
52858;SDS011;38721;53.098;6.596;2023-01-31T02:59:18;17.85;;;2.92;;
52858;SDS011;38721;53.098;6.596;2023-01-31T03:01:54;15.82;;;3.78;;
52858;SDS011;38721;53.098;6.596;2023-01-31T03:04:22;19.65;;;4.72;;
52858;SDS011;38721;53.098;6.596;2023-01-31T03:06:54;20.30;;;3.72;;
52858;SDS011;38721;53.098;6.596;2023-01-31T03:09:31;14.45;;;2.50;;
52858;SDS011;38721;53.098;6.596;2023-01-31T03:20:19;16.08;;;3.20;;
52858;SDS011;38721;53.098;6.596;2023-01-31T03:22:54;17.20;;;3.20;;
52858;SDS011;38721;53.098;6.596;2023-01-31T03:25:24;14.82;;;2.92;;
52858;SDS011;38721;53.098;6.596;2023-01-31T03:27:55;18.52;;;3.25;;
52858;SDS011;38721;53.098;6.596;2023-01-31T03:30:34;12.50;;;3.00;;
52858;SDS011;38721;53.098;6.596;2023-01-31T03:33:28;15.27;;;3.28;;
52858;SDS011;38721;53.098;6.596;2023-01-31T03:35:56;15.18;;;2.97;;
52858;SDS011;38721;53.098;6.596;2023-01-31T03:38:43;14.63;;;2.33;;
52858;SDS011;38721;53.098;6.596;2023-01-31T03:46:58;19.30;;;2.97;;
52858;SDS011;38721;53.098;6.596;2023-01-31T03:49:31;18.48;;;3.13;;
52858;SDS011;38721;53.098;6.596;2023-01-31T03:52:05;17.92;;;3.15;;
52858;SDS011;38721;53.098;6.596;2023-01-31T03:54:38;13.23;;;2.80;;
52858;SDS011;38721;53.098;6.596;2023-01-31T03:57:12;17.27;;;3.00;;
52858;SDS011;38721;53.098;6.596;2023-01-31T03:59:53;13.90;;;2.88;;
52858;SDS011;38721;53.098;6.596;2023-01-31T04:02:22;17.73;;;3.03;;
52858;SDS011;38721;53.098;6.596;2023-01-31T04:04:59;20.30;;;3.17;;
52858;SDS011;38721;53.098;6.596;2023-01-31T04:07:38;17.70;;;3.45;;
52858;SDS011;38721;53.098;6.596;2023-01-31T04:10:06;19.95;;;2.70;;
52858;SDS011;38721;53.098;6.596;2023-01-31T04:12:37;16.33;;;3.00;;
52858;SDS011;38721;53.098;6.596;2023-01-31T04:15:04;18.95;;;4.50;;
52858;SDS011;38721;53.098;6.596;2023-01-31T04:17:30;15.98;;;3.72;;
52858;SDS011;38721;53.098;6.596;2023-01-31T04:19:57;14.75;;;3.70;;
52858;SDS011;38721;53.098;6.596;2023-01-31T04:22:23;19.50;;;3.17;;
52858;SDS011;38721;53.098;6.596;2023-01-31T04:24:49;16.48;;;3.20;;
52858;SDS011;38721;53.098;6.596;2023-01-31T04:27:15;22.58;;;3.88;;
52858;SDS011;38721;53.098;6.596;2023-01-31T04:29:43;25.52;;;3.88;;
52858;SDS011;38721;53.098;6.596;2023-01-31T04:32:08;23.75;;;3.67;;
52858;SDS011;38721;53.098;6.596;2023-01-31T04:34:34;13.98;;;3.75;;
52858;SDS011;38721;53.098;6.596;2023-01-31T04:37:00;18.75;;;4.25;;
52858;SDS011;38721;53.098;6.596;2023-01-31T04:39:26;16.08;;;3.25;;
52858;SDS011;38721;53.098;6.596;2023-01-31T04:41:51;18.73;;;4.10;;
52858;SDS011;38721;53.098;6.596;2023-01-31T04:44:17;33.53;;;4.80;;
52858;SDS011;38721;53.098;6.596;2023-01-31T04:46:43;22.65;;;4.13;;
52858;SDS011;38721;53.098;6.596;2023-01-31T04:49:12;18.50;;;4.07;;
52858;SDS011;38721;53.098;6.596;2023-01-31T04:51:38;20.30;;;3.78;;
52858;SDS011;38721;53.098;6.596;2023-01-31T04:54:04;22.33;;;3.83;;
52858;SDS011;38721;53.098;6.596;2023-01-31T04:56:30;18.55;;;4.18;;
52858;SDS011;38721;53.098;6.596;2023-01-31T04:58:58;28.60;;;5.63;;
52858;SDS011;38721;53.098;6.596;2023-01-31T05:01:27;22.55;;;4.50;;
52858;SDS011;38721;53.098;6.596;2023-01-31T05:03:56;21.17;;;4.13;;
52858;SDS011;38721;53.098;6.596;2023-01-31T05:06:21;21.85;;;4.43;;
52858;SDS011;38721;53.098;6.596;2023-01-31T05:08:47;24.92;;;4.93;;
52858;SDS011;38721;53.098;6.596;2023-01-31T05:11:13;29.30;;;5.18;;
52858;SDS011;38721;53.098;6.596;2023-01-31T05:13:39;18.25;;;4.60;;
52858;SDS011;38721;53.098;6.596;2023-01-31T05:16:07;23.48;;;4.63;;
52858;SDS011;38721;53.098;6.596;2023-01-31T05:18:35;19.50;;;4.40;;
52858;SDS011;38721;53.098;6.596;2023-01-31T05:21:02;23.05;;;4.47;;
52858;SDS011;38721;53.098;6.596;2023-01-31T05:23:29;22.55;;;4.25;;
52858;SDS011;38721;53.098;6.596;2023-01-31T05:25:55;16.77;;;3.88;;
52858;SDS011;38721;53.098;6.596;2023-01-31T05:28:24;23.73;;;4.38;;
52858;SDS011;38721;53.098;6.596;2023-01-31T05:30:53;20.45;;;5.07;;
52858;SDS011;38721;53.098;6.596;2023-01-31T05:33:29;22.67;;;3.92;;
52858;SDS011;38721;53.098;6.596;2023-01-31T05:35:58;28.05;;;5.63;;
52858;SDS011;38721;53.098;6.596;2023-01-31T05:38:24;27.75;;;5.28;;
52858;SDS011;38721;53.098;6.596;2023-01-31T05:40:50;20.77;;;4.55;;
52858;SDS011;38721;53.098;6.596;2023-01-31T05:43:19;17.98;;;4.43;;
52858;SDS011;38721;53.098;6.596;2023-01-31T05:45:46;22.25;;;4.60;;
52858;SDS011;38721;53.098;6.596;2023-01-31T05:48:13;24.88;;;4.20;;
52858;SDS011;38721;53.098;6.596;2023-01-31T05:50:38;23.60;;;4.28;;
52858;SDS011;38721;53.098;6.596;2023-01-31T05:53:04;30.40;;;5.80;;
52858;SDS011;38721;53.098;6.596;2023-01-31T05:55:30;23.73;;;4.88;;
52858;SDS011;38721;53.098;6.596;2023-01-31T05:57:55;23.00;;;4.65;;
52858;SDS011;38721;53.098;6.596;2023-01-31T06:00:22;24.08;;;5.70;;
52858;SDS011;38721;53.098;6.596;2023-01-31T06:02:48;20.00;;;4.47;;
52858;SDS011;38721;53.098;6.596;2023-01-31T06:05:14;24.63;;;5.50;;
52858;SDS011;38721;53.098;6.596;2023-01-31T06:07:40;29.08;;;5.85;;
52858;SDS011;38721;53.098;6.596;2023-01-31T06:10:07;23.08;;;5.10;;
52858;SDS011;38721;53.098;6.596;2023-01-31T06:12:34;23.58;;;5.50;;
52858;SDS011;38721;53.098;6.596;2023-01-31T06:15:00;27.92;;;5.45;;
52858;SDS011;38721;53.098;6.596;2023-01-31T06:17:26;20.08;;;5.32;;
52858;SDS011;38721;53.098;6.596;2023-01-31T06:19:52;26.27;;;5.32;;
52858;SDS011;38721;53.098;6.596;2023-01-31T06:22:18;21.95;;;5.38;;
52858;SDS011;38721;53.098;6.596;2023-01-31T06:24:44;23.80;;;4.93;;
52858;SDS011;38721;53.098;6.596;2023-01-31T06:27:09;34.38;;;5.45;;
52858;SDS011;38721;53.098;6.596;2023-01-31T06:29:35;31.08;;;5.65;;
52858;SDS011;38721;53.098;6.596;2023-01-31T06:32:01;18.77;;;4.72;;
52858;SDS011;38721;53.098;6.596;2023-01-31T06:34:27;31.17;;;5.53;;
52858;SDS011;38721;53.098;6.596;2023-01-31T06:36:52;27.05;;;6.68;;
52858;SDS011;38721;53.098;6.596;2023-01-31T06:39:18;26.10;;;5.50;;
52858;SDS011;38721;53.098;6.596;2023-01-31T06:41:46;23.63;;;5.40;;
52858;SDS011;38721;53.098;6.596;2023-01-31T06:44:12;21.27;;;5.35;;
52858;SDS011;38721;53.098;6.596;2023-01-31T06:46:37;17.52;;;5.25;;
52858;SDS011;38721;53.098;6.596;2023-01-31T06:49:03;23.67;;;4.93;;
52858;SDS011;38721;53.098;6.596;2023-01-31T06:51:29;22.13;;;5.80;;
52858;SDS011;38721;53.098;6.596;2023-01-31T06:53:55;26.70;;;4.80;;
52858;SDS011;38721;53.098;6.596;2023-01-31T06:56:21;24.88;;;4.95;;
52858;SDS011;38721;53.098;6.596;2023-01-31T06:58:47;23.88;;;5.57;;
52858;SDS011;38721;53.098;6.596;2023-01-31T07:01:13;27.40;;;4.93;;
52858;SDS011;38721;53.098;6.596;2023-01-31T07:03:40;24.02;;;4.95;;
52858;SDS011;38721;53.098;6.596;2023-01-31T07:06:06;16.50;;;4.15;;
52858;SDS011;38721;53.098;6.596;2023-01-31T07:08:33;22.33;;;5.25;;
52858;SDS011;38721;53.098;6.596;2023-01-31T07:11:00;21.25;;;5.45;;
52858;SDS011;38721;53.098;6.596;2023-01-31T07:13:26;19.25;;;4.78;;
52858;SDS011;38721;53.098;6.596;2023-01-31T07:15:52;19.50;;;4.50;;
52858;SDS011;38721;53.098;6.596;2023-01-31T07:18:19;19.10;;;4.63;;
52858;SDS011;38721;53.098;6.596;2023-01-31T07:20:44;19.58;;;4.25;;
52858;SDS011;38721;53.098;6.596;2023-01-31T07:23:10;29.80;;;4.80;;
52858;SDS011;38721;53.098;6.596;2023-01-31T07:25:36;17.08;;;3.97;;
52858;SDS011;38721;53.098;6.596;2023-01-31T07:28:05;19.92;;;4.20;;
52858;SDS011;38721;53.098;6.596;2023-01-31T07:30:30;17.70;;;4.93;;
52858;SDS011;38721;53.098;6.596;2023-01-31T07:32:56;19.08;;;4.10;;
52858;SDS011;38721;53.098;6.596;2023-01-31T07:35:22;20.83;;;4.28;;
52858;SDS011;38721;53.098;6.596;2023-01-31T07:37:50;18.88;;;3.88;;
52858;SDS011;38721;53.098;6.596;2023-01-31T07:40:16;16.98;;;4.05;;
52858;SDS011;38721;53.098;6.596;2023-01-31T07:42:42;21.80;;;4.82;;
52858;SDS011;38721;53.098;6.596;2023-01-31T07:45:11;14.88;;;3.63;;
52858;SDS011;38721;53.098;6.596;2023-01-31T07:47:38;20.70;;;4.35;;
52858;SDS011;38721;53.098;6.596;2023-01-31T07:50:04;18.77;;;4.85;;
52858;SDS011;38721;53.098;6.596;2023-01-31T07:52:30;21.73;;;4.35;;
52858;SDS011;38721;53.098;6.596;2023-01-31T07:54:56;21.15;;;3.80;;
52858;SDS011;38721;53.098;6.596;2023-01-31T07:57:22;14.35;;;4.03;;
52858;SDS011;38721;53.098;6.596;2023-01-31T07:59:48;23.50;;;4.05;;
52858;SDS011;38721;53.098;6.596;2023-01-31T08:02:15;17.73;;;3.83;;
52858;SDS011;38721;53.098;6.596;2023-01-31T08:05:00;15.52;;;3.72;;
52858;SDS011;38721;53.098;6.596;2023-01-31T08:07:27;17.92;;;4.35;;
52858;SDS011;38721;53.098;6.596;2023-01-31T08:09:53;16.55;;;4.35;;
52858;SDS011;38721;53.098;6.596;2023-01-31T08:12:19;14.00;;;3.63;;
52858;SDS011;38721;53.098;6.596;2023-01-31T08:14:45;16.45;;;4.55;;
52858;SDS011;38721;53.098;6.596;2023-01-31T08:17:11;17.70;;;3.42;;
52858;SDS011;38721;53.098;6.596;2023-01-31T08:19:37;14.07;;;3.40;;
52858;SDS011;38721;53.098;6.596;2023-01-31T08:22:03;19.88;;;3.22;;
52858;SDS011;38721;53.098;6.596;2023-01-31T08:24:30;20.92;;;4.15;;
52858;SDS011;38721;53.098;6.596;2023-01-31T08:26:56;16.90;;;3.78;;
52858;SDS011;38721;53.098;6.596;2023-01-31T08:29:22;12.48;;;3.28;;
52858;SDS011;38721;53.098;6.596;2023-01-31T08:31:48;20.63;;;3.53;;
52858;SDS011;38721;53.098;6.596;2023-01-31T08:34:15;18.80;;;3.25;;
52858;SDS011;38721;53.098;6.596;2023-01-31T08:36:41;13.07;;;3.05;;
52858;SDS011;38721;53.098;6.596;2023-01-31T08:39:07;14.93;;;3.22;;
52858;SDS011;38721;53.098;6.596;2023-01-31T08:41:34;14.35;;;3.15;;
52858;SDS011;38721;53.098;6.596;2023-01-31T08:44:01;12.45;;;3.08;;
52858;SDS011;38721;53.098;6.596;2023-01-31T08:46:32;14.27;;;4.07;;
52858;SDS011;38721;53.098;6.596;2023-01-31T08:49:00;12.93;;;3.78;;
52858;SDS011;38721;53.098;6.596;2023-01-31T08:51:27;18.38;;;3.63;;
52858;SDS011;38721;53.098;6.596;2023-01-31T08:53:53;16.92;;;3.00;;
52858;SDS011;38721;53.098;6.596;2023-01-31T08:56:19;13.45;;;3.88;;
52858;SDS011;38721;53.098;6.596;2023-01-31T08:58:49;11.48;;;3.05;;
52858;SDS011;38721;53.098;6.596;2023-01-31T09:01:16;17.77;;;3.58;;
52858;SDS011;38721;53.098;6.596;2023-01-31T09:03:43;13.13;;;3.33;;
52858;SDS011;38721;53.098;6.596;2023-01-31T09:06:11;16.38;;;4.82;;
52858;SDS011;38721;53.098;6.596;2023-01-31T09:08:39;11.93;;;3.47;;
52858;SDS011;38721;53.098;6.596;2023-01-31T09:11:05;14.50;;;2.88;;
52858;SDS011;38721;53.098;6.596;2023-01-31T09:13:31;16.48;;;3.40;;
52858;SDS011;38721;53.098;6.596;2023-01-31T09:18:25;18.58;;;3.95;;
52858;SDS011;38721;53.098;6.596;2023-01-31T09:20:51;15.63;;;3.35;;
52858;SDS011;38721;53.098;6.596;2023-01-31T09:23:18;15.98;;;3.50;;
52858;SDS011;38721;53.098;6.596;2023-01-31T09:25:50;22.25;;;3.92;;
52858;SDS011;38721;53.098;6.596;2023-01-31T09:28:19;14.30;;;3.03;;
52858;SDS011;38721;53.098;6.596;2023-01-31T09:30:48;15.43;;;3.25;;
52858;SDS011;38721;53.098;6.596;2023-01-31T09:33:17;12.68;;;3.47;;
52858;SDS011;38721;53.098;6.596;2023-01-31T09:35:43;15.73;;;3.20;;
52858;SDS011;38721;53.098;6.596;2023-01-31T09:38:19;20.23;;;3.33;;
52858;SDS011;38721;53.098;6.596;2023-01-31T09:40:47;13.48;;;3.40;;
52858;SDS011;38721;53.098;6.596;2023-01-31T09:43:13;17.38;;;3.42;;
52858;SDS011;38721;53.098;6.596;2023-01-31T09:45:40;15.68;;;3.40;;
52858;SDS011;38721;53.098;6.596;2023-01-31T09:48:09;18.60;;;3.90;;
52858;SDS011;38721;53.098;6.596;2023-01-31T09:50:44;13.05;;;2.90;;
52858;SDS011;38721;53.098;6.596;2023-01-31T09:53:15;15.57;;;3.47;;
52858;SDS011;38721;53.098;6.596;2023-01-31T09:58:35;22.48;;;4.05;;
52858;SDS011;38721;53.098;6.596;2023-01-31T10:01:30;16.77;;;3.65;;
52858;SDS011;38721;53.098;6.596;2023-01-31T10:07:14;18.08;;;3.60;;
52858;SDS011;38721;53.098;6.596;2023-01-31T10:09:53;16.00;;;3.40;;
52858;SDS011;38721;53.098;6.596;2023-01-31T10:12:31;23.65;;;3.35;;
52858;SDS011;38721;53.098;6.596;2023-01-31T10:15:12;13.55;;;3.35;;
52858;SDS011;38721;53.098;6.596;2023-01-31T10:17:44;12.45;;;3.38;;
52858;SDS011;38721;53.098;6.596;2023-01-31T10:28:13;20.02;;;4.45;;
52858;SDS011;38721;53.098;6.596;2023-01-31T10:33:38;16.63;;;3.28;;
52858;SDS011;38721;53.098;6.596;2023-01-31T10:36:44;20.92;;;4.50;;
52858;SDS011;38721;53.098;6.596;2023-01-31T10:42:14;15.27;;;3.95;;
52858;SDS011;38721;53.098;6.596;2023-01-31T10:47:18;15.15;;;3.78;;
52858;SDS011;38721;53.098;6.596;2023-01-31T10:49:46;17.40;;;3.85;;
52858;SDS011;38721;53.098;6.596;2023-01-31T10:58:20;12.27;;;3.47;;
52858;SDS011;38721;53.098;6.596;2023-01-31T11:00:47;12.07;;;3.85;;
52858;SDS011;38721;53.098;6.596;2023-01-31T11:03:13;15.60;;;3.97;;
52858;SDS011;38721;53.098;6.596;2023-01-31T11:05:56;15.85;;;4.18;;
52858;SDS011;38721;53.098;6.596;2023-01-31T11:11:13;14.30;;;3.67;;
52858;SDS011;38721;53.098;6.596;2023-01-31T11:13:53;19.02;;;4.03;;
52858;SDS011;38721;53.098;6.596;2023-01-31T11:16:23;13.75;;;3.10;;
52858;SDS011;38721;53.098;6.596;2023-01-31T11:18:50;14.13;;;3.47;;
52858;SDS011;38721;53.098;6.596;2023-01-31T11:21:28;18.42;;;4.30;;
52858;SDS011;38721;53.098;6.596;2023-01-31T11:24:05;15.88;;;3.60;;
52858;SDS011;38721;53.098;6.596;2023-01-31T11:26:41;13.20;;;3.30;;
52858;SDS011;38721;53.098;6.596;2023-01-31T11:29:19;20.30;;;3.80;;
52858;SDS011;38721;53.098;6.596;2023-01-31T11:31:53;15.25;;;3.83;;
52858;SDS011;38721;53.098;6.596;2023-01-31T11:34:28;16.40;;;3.35;;
52858;SDS011;38721;53.098;6.596;2023-01-31T11:39:40;13.70;;;3.50;;
52858;SDS011;38721;53.098;6.596;2023-01-31T11:42:13;18.80;;;3.22;;
52858;SDS011;38721;53.098;6.596;2023-01-31T11:44:53;17.80;;;2.87;;
52858;SDS011;38721;53.098;6.596;2023-01-31T11:47:37;11.80;;;3.40;;
52858;SDS011;38721;53.098;6.596;2023-01-31T11:50:14;15.35;;;4.25;;
52858;SDS011;38721;53.098;6.596;2023-01-31T11:53:19;17.77;;;4.05;;
52858;SDS011;38721;53.098;6.596;2023-01-31T11:55:51;16.80;;;3.88;;
52858;SDS011;38721;53.098;6.596;2023-01-31T11:58:20;16.88;;;4.32;;
52858;SDS011;38721;53.098;6.596;2023-01-31T12:00:57;17.15;;;4.53;;
52858;SDS011;38721;53.098;6.596;2023-01-31T12:03:26;13.95;;;3.38;;
52858;SDS011;38721;53.098;6.596;2023-01-31T12:06:00;23.05;;;4.00;;
52858;SDS011;38721;53.098;6.596;2023-01-31T12:10:57;17.17;;;4.28;;
52858;SDS011;38721;53.098;6.596;2023-01-31T12:13:24;18.02;;;3.50;;
52858;SDS011;38721;53.098;6.596;2023-01-31T12:18:38;19.77;;;4.40;;
52858;SDS011;38721;53.098;6.596;2023-01-31T12:44:43;20.45;;;4.50;;
52858;SDS011;38721;53.098;6.596;2023-01-31T12:55:46;11.50;;;3.03;;
52858;SDS011;38721;53.098;6.596;2023-01-31T13:01:36;13.20;;;3.05;;
52858;SDS011;38721;53.098;6.596;2023-01-31T13:04:29;12.68;;;3.10;;
52858;SDS011;38721;53.098;6.596;2023-01-31T13:09:57;13.35;;;3.17;;
52858;SDS011;38721;53.098;6.596;2023-01-31T13:12:26;22.10;;;3.35;;
52858;SDS011;38721;53.098;6.596;2023-01-31T13:14:57;11.93;;;3.15;;
52858;SDS011;38721;53.098;6.596;2023-01-31T13:17:38;16.50;;;3.65;;
52858;SDS011;38721;53.098;6.596;2023-01-31T13:20:20;10.38;;;3.58;;
52858;SDS011;38721;53.098;6.596;2023-01-31T13:22:58;11.57;;;2.83;;
52858;SDS011;38721;53.098;6.596;2023-01-31T13:28:12;14.93;;;3.13;;
52858;SDS011;38721;53.098;6.596;2023-01-31T13:31:36;16.77;;;3.70;;
52858;SDS011;38721;53.098;6.596;2023-01-31T13:33:54;12.63;;;3.33;;
52858;SDS011;38721;53.098;6.596;2023-01-31T13:39:41;10.05;;;2.83;;
52858;SDS011;38721;53.098;6.596;2023-01-31T13:42:08;11.23;;;2.80;;
52858;SDS011;38721;53.098;6.596;2023-01-31T13:44:38;16.10;;;3.63;;
52858;SDS011;38721;53.098;6.596;2023-01-31T13:49:57;13.45;;;2.80;;
52858;SDS011;38721;53.098;6.596;2023-01-31T13:52:31;13.43;;;2.90;;
52858;SDS011;38721;53.098;6.596;2023-01-31T13:55:04;20.58;;;3.35;;
52858;SDS011;38721;53.098;6.596;2023-01-31T13:57:34;14.00;;;3.33;;
52858;SDS011;38721;53.098;6.596;2023-01-31T14:00:55;15.93;;;3.58;;
52858;SDS011;38721;53.098;6.596;2023-01-31T14:03:09;11.13;;;2.67;;
52858;SDS011;38721;53.098;6.596;2023-01-31T14:10:57;9.27;;;2.80;;
52858;SDS011;38721;53.098;6.596;2023-01-31T14:16:02;18.58;;;3.25;;
52858;SDS011;38721;53.098;6.596;2023-01-31T14:18:48;13.68;;;3.00;;
52858;SDS011;38721;53.098;6.596;2023-01-31T14:29:23;14.02;;;3.15;;
52858;SDS011;38721;53.098;6.596;2023-01-31T14:31:53;13.32;;;3.17;;
52858;SDS011;38721;53.098;6.596;2023-01-31T14:34:28;19.92;;;3.45;;
52858;SDS011;38721;53.098;6.596;2023-01-31T14:39:53;21.90;;;5.90;;
52858;SDS011;38721;53.098;6.596;2023-01-31T14:45:28;14.63;;;3.15;;
52858;SDS011;38721;53.098;6.596;2023-01-31T14:57:17;15.35;;;3.20;;
52858;SDS011;38721;53.098;6.596;2023-01-31T15:13:50;17.55;;;3.83;;
52858;SDS011;38721;53.098;6.596;2023-01-31T15:18:51;20.10;;;3.88;;
52858;SDS011;38721;53.098;6.596;2023-01-31T15:21:52;25.52;;;4.07;;
52858;SDS011;38721;53.098;6.596;2023-01-31T15:26:51;20.73;;;3.78;;
52858;SDS011;38721;53.098;6.596;2023-01-31T15:29:23;19.23;;;3.28;;
52858;SDS011;38721;53.098;6.596;2023-01-31T15:31:52;13.57;;;3.45;;
52858;SDS011;38721;53.098;6.596;2023-01-31T15:34:24;18.58;;;4.28;;
52858;SDS011;38721;53.098;6.596;2023-01-31T15:37:13;19.48;;;4.03;;
52858;SDS011;38721;53.098;6.596;2023-01-31T15:39:58;18.40;;;3.85;;
52858;SDS011;38721;53.098;6.596;2023-01-31T15:42:39;12.52;;;3.30;;
52858;SDS011;38721;53.098;6.596;2023-01-31T15:45:24;15.52;;;3.30;;
52858;SDS011;38721;53.098;6.596;2023-01-31T15:48:13;13.80;;;3.70;;
52858;SDS011;38721;53.098;6.596;2023-01-31T15:50:50;18.35;;;3.65;;
52858;SDS011;38721;53.098;6.596;2023-01-31T15:53:16;20.38;;;4.82;;
52858;SDS011;38721;53.098;6.596;2023-01-31T15:55:45;21.75;;;4.60;;
52858;SDS011;38721;53.098;6.596;2023-01-31T15:58:17;17.25;;;3.60;;
52858;SDS011;38721;53.098;6.596;2023-01-31T16:00:48;16.40;;;3.47;;
52858;SDS011;38721;53.098;6.596;2023-01-31T16:03:38;17.92;;;4.57;;
52858;SDS011;38721;53.098;6.596;2023-01-31T16:06:04;21.40;;;4.22;;
52858;SDS011;38721;53.098;6.596;2023-01-31T16:08:58;18.75;;;4.47;;
52858;SDS011;38721;53.098;6.596;2023-01-31T16:11:25;20.88;;;4.70;;
52858;SDS011;38721;53.098;6.596;2023-01-31T16:13:55;19.77;;;3.97;;
52858;SDS011;38721;53.098;6.596;2023-01-31T16:16:22;21.75;;;4.47;;
52858;SDS011;38721;53.098;6.596;2023-01-31T16:18:53;17.63;;;4.75;;
52858;SDS011;38721;53.098;6.596;2023-01-31T16:21:23;27.95;;;4.97;;
52858;SDS011;38721;53.098;6.596;2023-01-31T16:26:24;27.98;;;4.50;;
52858;SDS011;38721;53.098;6.596;2023-01-31T16:28:57;25.67;;;4.43;;
52858;SDS011;38721;53.098;6.596;2023-01-31T16:31:31;15.95;;;3.72;;
52858;SDS011;38721;53.098;6.596;2023-01-31T16:34:07;21.52;;;4.10;;
52858;SDS011;38721;53.098;6.596;2023-01-31T16:37:03;18.83;;;3.92;;
52858;SDS011;38721;53.098;6.596;2023-01-31T16:39:37;25.20;;;3.67;;
52858;SDS011;38721;53.098;6.596;2023-01-31T16:44:48;18.15;;;3.55;;
52858;SDS011;38721;53.098;6.596;2023-01-31T16:56:14;18.15;;;3.72;;
52858;SDS011;38721;53.098;6.596;2023-01-31T16:58:54;27.63;;;4.47;;
52858;SDS011;38721;53.098;6.596;2023-01-31T17:01:29;30.42;;;4.95;;
52858;SDS011;38721;53.098;6.596;2023-01-31T17:06:50;27.58;;;5.10;;
52858;SDS011;38721;53.098;6.596;2023-01-31T17:09:26;18.33;;;3.92;;
52858;SDS011;38721;53.098;6.596;2023-01-31T17:11:52;22.05;;;4.32;;
52858;SDS011;38721;53.098;6.596;2023-01-31T17:14:19;23.95;;;4.40;;
52858;SDS011;38721;53.098;6.596;2023-01-31T17:16:45;28.08;;;5.35;;
52858;SDS011;38721;53.098;6.596;2023-01-31T17:19:14;21.30;;;4.43;;
52858;SDS011;38721;53.098;6.596;2023-01-31T17:21:40;24.60;;;4.43;;
52858;SDS011;38721;53.098;6.596;2023-01-31T17:24:16;21.33;;;4.25;;
52858;SDS011;38721;53.098;6.596;2023-01-31T17:26:43;21.25;;;3.92;;
52858;SDS011;38721;53.098;6.596;2023-01-31T17:29:15;26.48;;;4.65;;
52858;SDS011;38721;53.098;6.596;2023-01-31T17:31:41;22.48;;;4.28;;
52858;SDS011;38721;53.098;6.596;2023-01-31T17:34:11;15.55;;;4.10;;
52858;SDS011;38721;53.098;6.596;2023-01-31T17:36:41;19.52;;;4.82;;
52858;SDS011;38721;53.098;6.596;2023-01-31T17:39:10;22.98;;;5.20;;
52858;SDS011;38721;53.098;6.596;2023-01-31T17:41:36;29.80;;;5.30;;
52858;SDS011;38721;53.098;6.596;2023-01-31T17:44:03;21.13;;;3.53;;
52858;SDS011;38721;53.098;6.596;2023-01-31T17:46:30;22.90;;;4.03;;
52858;SDS011;38721;53.098;6.596;2023-01-31T17:48:56;22.73;;;3.97;;
52858;SDS011;38721;53.098;6.596;2023-01-31T17:51:22;23.15;;;4.80;;
52858;SDS011;38721;53.098;6.596;2023-01-31T17:53:48;18.70;;;4.28;;
52858;SDS011;38721;53.098;6.596;2023-01-31T17:56:14;21.60;;;4.50;;
52858;SDS011;38721;53.098;6.596;2023-01-31T17:58:40;19.95;;;4.25;;
52858;SDS011;38721;53.098;6.596;2023-01-31T18:01:09;19.88;;;3.88;;
52858;SDS011;38721;53.098;6.596;2023-01-31T18:03:37;19.02;;;3.90;;
52858;SDS011;38721;53.098;6.596;2023-01-31T18:06:04;15.70;;;3.33;;
52858;SDS011;38721;53.098;6.596;2023-01-31T18:08:31;20.33;;;4.47;;
52858;SDS011;38721;53.098;6.596;2023-01-31T18:11:04;20.63;;;3.95;;